Aérodrome :
LOGIN :

S'inscrire | Disclaimer

   EN    FR    IT 

 










Légende :    VFR   VFR Marginal   IFR   IFR Intensif   IFR Très Intensif
Visi : 
Plafond : 
>= 8 km
>= 3000ft
5 à 8 km
1000 à 3000 ft
1500m à 5 km
500 à 1000 ft
800 à 1500m
200 à 500 ft
< 800m
< 200 ft
Symboles :   Orages  Brouillard  Fortes neiges  Fortes précipitations  Vent > 20 kt
SIGMETs :   Divers  Orages  Givrage  Turbulence  Onde Orograph.  Cendres Volcan.






- Altitude de l'aérodrome : 2096 ft
- Code IATA : AUR


LFLW - Aurillac

DERNIER METAR :
  • 141300Z AUTO 29009KT 9999 // ////// 11/10 Q1010

METARs EXPIRÉS :
  • 141230Z AUTO 27011KT 230V290 9999 // ////// 11/10 Q1010
  • 141200Z AUTO 27008KT 240V300 3900 RA BR ////// 11/10 Q1010
  • 141130Z AUTO 27010KT 230V310 9999 // ////// 11/10 Q1010
  • 141100Z AUTO 28009KT 230V310 3100 -RA BR ////// 10/10 Q1011
  • 141030Z AUTO 28010KT 250V310 9000 2800 -RA ////// 11/10 Q1011

TAF TAF LFLW
Valide du 14 à 12h jusqu'au 14 à 21h UTC


141100Z 1412/1421 28007KT 9999 BKN006
TEMPO 1412/1418 26015G25KT 4000 -RADZ BKN004
BECMG 1418/1421 BKN030



MET'MAP, la Météo Aéronautique d'un coup d'oeil ! - Copyright ORBIFLY Décembre 2007 - Disclaimer

ORBIFLY MET'MAP TEAM :

Programmation & Développement : Alexandra Zaïnal
Sur une idée originale de : Baudouin d'Aumeries
Assistance à la programmation : Marc-Olivier Méhu
Soutien technique & logistique : Manuel Goepfert

Contact : metmap@orbifly.com




SOURCES & CREDITS :

   NOAA